Jackpot

Texas Poker Multi Jackpot System

Kini Telah hadir Jackpot SUPER ROYAL FLUSH

Kini Telah hadir Jackpot 2000 (khusus table VIP keatas).

Ikutilah global jackpot yang tersedia di system kami, dengan system jackpot terbaru dan pertama di indonesia, anda dapat membeli jackpot dengan harga 100 rupiah saja dan menangkan hadiahnya hingga puluhan juta rupiah.

Jackpot bukanlah suatu keharusan untuk dibeli, namun kami memberikan suatu fitur tambahan untuk member tercinta dari www.indopk.net.

Terdapat tiga pilihan harga jackpot yang bisa anda beli yaitu :100,500,1000 dan 2000(khusus table VIP Keatas) rupiah.

Hadiah dari Multi jackpot system www.indopk.net

  1. full house x 10 harga jackpot yang anda beli.
      (contoh:anda membeli 1000 maka:1000 X10 = 10.000)
  2. four of kind x 250 harga jackpot yang anda beli
      (contoh:anda membeli 1000 maka:1000 X250 = 250.000)
  3. Straight flush x 1200
      (contoh:anda membeli 1000 maka:1000 X1200 = 1.200.000)
  4. Royal flush x 10000 harga jackpot yang anda beli
      (contoh:anda membeli 1000 maka:1000 X10000 = 10.000.000)
  5. SUPER ROYAL FLUSH x 30000 harga jackpot yang anda beli
      (contoh:anda membeli 1000 maka:1000 X30000 = 30.000.000)

Kondisi kartu

  1. full house adalah kondisi kartu dimana kartu anda dan kartu tengah dengan total 7 kartu bisa mendapatkan nilai 5 kartu dengan kombinasi 1 tris(three of kind) dan 1 pair, contoh 3 kartu 10 dan 2 kartu 5
  2. Four of kind adalah kondisi kartu dimana kartu anda dan kartu tengah dengan total 7 kartu bisa mendapatkan nilai 5 kartu dengan kombinasi 4 kartu yang sama jumlah dan 1 kartu apapun juga contoh anda mendapatkan 4 buah kartu angka 3 dan 1 kartu apapun.
  3. Staright flush adalah kondisi kartu dimana kartu anda dan kartu tengah dengan total 7 kartu bisa mendapatkan nilai 5 kartu dengan kombinasi seri / staright dengan kembang yang sama contoh : urutan kartu dari angka 5, 6, 7, 8 , 9 10 dengan kembang yg sama misalnya as hati
  4. Royal flush adalah kondisi kartu dimana kartu anda dan kartu tengah dengan total 7 kartu bisa mendapatkan nilai 5 kartu dengan kombinasi seri / staright dengan kembang yang sama tetapi kartu tersebut haruslah dimulai dari 10. contoh 10, Queen, Jack, King dan aces dengan kembang yang sama
  5. Super Royal flush adalah kondisi kartu dimana Kedua kartu anda digabung dengan 3 kartu pertama meja haruslah royal flush. contoh kartu anda 10,Queen kembang sama dan 3 kartu pertama meja adalah Jack, King dan aces dengan kembang yang sama

Demikian adalah penjelasan dari Multi Jackpot www.indopk.net terima kasih dan selamat bermain salam hoki dari kami

Texas Poker Jackpot Winner

TOP SUPER ROYAL FLUSH
No.TanggalNamaPriceWin
125/05 04:52SONGONG21Super Royal flush15,000,000
225/05 03:00WAMBE88Super Royal flush15,000,000
325/05 01:42NUVO199Super Royal flush15,000,000
425/05 01:25COPYWHIT3Super Royal flush6,000,000
525/05 00:47D0LPI3NDSuper Royal flush15,000,000
TOP ROYAL FLUSH
No.TanggalNamaPriceWin
125/05 11:42GANTUL88Royal flush1,000,000
225/05 10:43QEYZ7GJ1WIRoyal flush5,000,000
325/05 10:33FIKRIALRoyal flush5,000,000
425/05 10:33IZ552083Royal flush20,000,000
525/05 10:32CIKRAK1000Royal flush5,000,000
TOP STRAIGHT FLUSH
No.TanggalNamaPriceWin
125/05 11:47PT4DJUMADI99Straight Flush600,000
225/05 11:45BEOLAF888Straight Flush120,000
325/05 11:33SANTAI81Straight Flush600,000
425/05 11:33JONS81Straight Flush240,000
525/05 11:32BOWOX16Straight Flush600,000
LATEST JACKPOT
No.TanggalNamaPriceWin
125/05 11:48WHITEHOKYFull House2,000
225/05 11:48AADRAXSP50Full House1,000
325/05 11:48PEE1818Full House10,000
425/05 11:48G4BHYFKCNPFull House5,000
525/05 11:48MPPONIFull House1,000
625/05 11:48B85VIN670Full House2,000
725/05 11:48JARWOH99Full House5,000
825/05 11:48TATAEDAN77Full House10,000
925/05 11:48JIH4N15Full House2,000
1025/05 11:48MASDON17Full House1,000
1125/05 11:48LEDOK9999Full House10,000
1225/05 11:48BOSDONKFull House2,000
1325/05 11:48DERY_JPFull House5,000
1425/05 11:47EMAGRAHAFull House2,000
1525/05 11:47POKER7799Full House5,000
1625/05 11:47SOCIIN99Four Of A Kind25,000
1725/05 11:47CHIBLEX1Full House10,000
1825/05 11:47MCSRJO5Full House1,000
1925/05 11:47PAPAZA30Full House2,000
2025/05 11:47MELASSO19Full House5,000
2125/05 11:47IDJIUNG99Full House500
2225/05 11:47SIPONG17Full House2,000
2325/05 11:47TEMPIXMASFull House2,000
2425/05 11:47STJENARFull House2,000
2525/05 11:47BERKATDOAFull House10,000
2625/05 11:47QQRIFQYFull House5,000
2725/05 11:47VZVFull House10,000
2825/05 11:47P3ND05_Full House2,000
2925/05 11:47K3BON99Full House5,000
3025/05 11:47SS6DFull House10,000
3125/05 11:47LORD_PRASTFull House10,000
3225/05 11:47FAILEDEEFull House500
3325/05 11:47MDR0001663Full House20,000
3425/05 11:47FRNANDO093Full House10,000
3525/05 11:47HLKHFull House20,000
3625/05 11:47QLOROX99Full House10,000
3725/05 11:47PREDATORR_Full House5,000
3825/05 11:47PT4DJUMADI99Straight Flush600,000
3925/05 11:47MELLEHOY77Full House5,000
4025/05 11:47PAKWAKFull House1,000
4125/05 11:47LALATBESARFull House5,000
4225/05 11:47IM8TAB3NLWFull House1,000
4325/05 11:47OBC7067Full House2,000
4425/05 11:47C3B9DDD5Four Of A Kind50,000
4525/05 11:47J67R3JTXSZFull House1,000
4625/05 11:47G0BL1N86Full House5,000
4725/05 11:47S4KAWWFull House1,000
4825/05 11:47HOME88315Full House2,000
4925/05 11:47QUEENCO306Full House2,000
5025/05 11:46TERRE999Full House5,000

Domino Multi Jackpot System

Ikutilah global jackpot yang tersedia di system kami, dengan system jackpot terbaru dan pertama di indonesia, anda dapat membeli jackpot dengan harga 100 rupiah saja dan menangkan hadiahnya hingga puluhan juta rupiah.

Jackpot bukanlah suatu keharusan untuk dibeli, namun kami memberikan suatu fitur tambahan untuk member tercinta dari www.indopk.net.

Terdapat tiga pilihan harga jackpot yang bisa anda beli yaitu :100,500 dan 1000 rupiah.

Hadiah dari Multi jackpot system www.indopk.net

  1. Murni Kecil x 50 harga jackpot yang anda beli.
      (contoh:anda membeli 1000 maka:1000 X 50 = 50.000)
  2. Murni Besar x 50 harga jackpot yang anda beli
      (contoh:anda membeli 1000 maka:1000 X 50 = 50.000)
  3. BALAK x 100 harga jackpot yang anda beli
      (contoh:anda membeli 1000 maka:1000 X 100 = 100.000)
  4. ENAM DEWA x 6666 harga jackpot yang anda beli
      (contoh:anda membeli 1000 maka:1000 X 6666 = 6.666.000)

Demikian adalah penjelasan dari Multi Jackpot www.indopk.net terima kasih dan selamat bermain salam hoki dari kami

Domino Jackpot Winner

TOP ENAM DEWA
No.TanggalNamaPriceWin
125/05 09:51ARKHAN29murni enam3,333,000
225/05 06:55BUL6OSOmurni enam3,333,000
325/05 01:58ACB97389murni enam6,666,000
425/05 01:51ESPOY88murni enam6,666,000
525/05 01:43SILEMAN88murni enam6,666,000
TOP BALAK
No.TanggalNamaPriceWin
125/05 11:48BOWONYAbalak100,000
225/05 11:46FIVESTARbalak50,000
325/05 11:44CUKAKU21balak100,000
425/05 11:42PUYUH14balak50,000
525/05 11:42SINCAI99balak50,000
LATEST JACKPOT
No.TanggalNamaPriceWin
125/05 11:48BOWONYAbalak100,000
225/05 11:47HERI77ANDAmurni besar50,000
325/05 11:47SIKODOK27murni besar50,000
425/05 11:47A66A042Fmurni kecil50,000
525/05 11:47JAC64Xmurni besar50,000
625/05 11:46FIVESTARbalak50,000
725/05 11:45KTC6666murni kecil50,000
825/05 11:45REYY666murni kecil5,000
925/05 11:45M45BOZmurni kecil50,000
1025/05 11:44DEMAK77murni kecil50,000
1125/05 11:44CUKAKU21balak100,000
1225/05 11:43ANDRYMFAmurni kecil50,000
1325/05 11:43REMBO0007murni kecil50,000
1425/05 11:43XQQVPMG1TRmurni besar50,000
1525/05 11:42PUJIYONO09murni kecil5,000
1625/05 11:42PUYUH14balak50,000
1725/05 11:42SINCAI99balak50,000
1825/05 11:41JTPLATmurni besar50,000
1925/05 11:40C09FCEAAbalak100,000
2025/05 11:39RY825A5J5Emurni besar50,000
2125/05 11:39JAC64Xmurni kecil50,000
2225/05 11:39ALUXQQmurni kecil5,000
2325/05 11:39C09FCEAAmurni besar50,000
2425/05 11:39DM193438murni besar50,000
2525/05 11:39JUNGZONGbalak10,000
2625/05 11:37LOEKMAN91murni besar50,000
2725/05 11:36AXELALATASmurni besar25,000
2825/05 11:36RABAN25murni kecil50,000
2925/05 11:35DIDIKSOmurni besar50,000
3025/05 11:35ANAH378murni kecil5,000
3125/05 11:33WSDVEVEmurni besar5,000
3225/05 11:33KHANSA14murni kecil50,000
3325/05 11:32ANDRYMFAbalak100,000
3425/05 11:32EMBE999murni besar50,000
3525/05 11:32CERA89murni besar25,000
3625/05 11:32BIMBIM2222lucky9910,000
3725/05 11:31JIMBO_CR7balak100,000
3825/05 11:30PT4DNATA96murni besar5,000
3925/05 11:30KI_JAGADbalak100,000
4025/05 11:28DOMINO228murni besar50,000
4125/05 11:28NNAFIFAHmurni kecil50,000
4225/05 11:25GOODBYE84murni besar25,000
4325/05 11:25LOEKMAN91murni kecil50,000
4425/05 11:25NEKO69lucky9950,000
4525/05 11:25RENALD99murni besar25,000
4625/05 11:25E89FF59Abalak50,000
4725/05 11:25KOINAWANmurni besar25,000
4825/05 11:24DOPRITmurni kecil50,000
4925/05 11:22DM82997murni kecil50,000
5025/05 11:22DM193438murni kecil25,000

Ceme Multi Jackpot System

Jackpot dilihat dari gabungan kartu pemain dengan kartu bandar. Bandar harus membeli jackpot sebanyak jumlah player yang sedang duduk. Sebagai contoh bila terdapat 3 pemain duduk bermain, dan bandar memutuskan untuk membeli jackpot Rp 1.000, maka pada periode tersebut bandar akan membeli jackpot sebanyak 3xRp1.000 = Rp3.000.

Jackpot bukanlah suatu keharusan untuk dibeli, namun kami memberikan suatu fitur tambahan untuk member tercinta dari www.indopk.net.

Terdapat tiga pilihan harga jackpot yang bisa anda beli yaitu :100,500 dan 1000 rupiah.

Hadiah dari Multi jackpot system www.indopk.net

  1. Murni Kecil x 50 harga jackpot yang anda beli.
      (contoh:anda membeli 1000 maka:1000 X 50 = 50.000)
  2. Murni Besar x 50 harga jackpot yang anda beli
      (contoh:anda membeli 1000 maka:1000 X 50 = 50.000)
  3. BALAK x 200 harga jackpot yang anda beli
      (contoh:anda membeli 1000 maka:1000 X 200 = 200.000)
  4. ENAM DEWA x 6666 harga jackpot yang anda beli
      (contoh:anda membeli 1000 maka:1000 X 6666 = 6.666.000)

Demikian adalah penjelasan dari Multi Jackpot www.indopk.net terima kasih dan selamat bermain salam hoki dari kami

Ceme Jackpot Winner

TOP ENAM DEWA
No.TanggalNamaPriceWin
125/05 11:01JIDRAT909murni enam3,333,000
225/05 10:18EVHAN26murni enam3,333,000
325/05 10:18HDRTmurni enam666,600
425/05 10:02HAM626murni enam6,666,000
525/05 09:17APIT123456murni enam666,600
TOP BALAK
No.TanggalNamaPriceWin
125/05 11:48KASI_UANG8balak200,000
225/05 11:45HAMDANI83balak200,000
325/05 11:45SIRGAL990balak200,000
425/05 11:45BENGKENG90balak20,000
525/05 11:45MULTI88922balak20,000
LATEST JACKPOT
No.TanggalNamaPriceWin
125/05 11:48BOSMUDA126murni besar25,000
225/05 11:48RAJAHUTANmurni kecil50,000
325/05 11:48KENCI66murni besar50,000
425/05 11:48KASI_UANG8balak200,000
525/05 11:47MDRBOEDAYZM66murni besar50,000
625/05 11:47ABEW6969murni besar50,000
725/05 11:47ARCHERY45murni besar50,000
825/05 11:47KASI_UANG8murni kecil50,000
925/05 11:47ALEX77777murni kecil50,000
1025/05 11:47AGYEmurni kecil50,000
1125/05 11:47LOREVERmurni kecil50,000
1225/05 11:46DERMAYmurni kecil50,000
1325/05 11:46CHAKRA75murni besar50,000
1425/05 11:46ANANK22Dmurni kecil5,000
1525/05 11:46WAJIK212murni kecil5,000
1625/05 11:46A84A44A9murni besar50,000
1725/05 11:46BP881445murni kecil50,000
1825/05 11:46YUDI501murni kecil50,000
1925/05 11:45AS6Q9murni kecil50,000
2025/05 11:45JYMA57OLOEmurni kecil25,000
2125/05 11:45HAMDANI83balak200,000
2225/05 11:45SIRGAL990balak200,000
2325/05 11:45CU13IT_9murni kecil50,000
2425/05 11:45AGOESAGOESmurni besar50,000
2525/05 11:45BENGKENG90balak20,000
2625/05 11:45BOSMUDA126murni besar25,000
2725/05 11:45ZAEZAEMUmurni besar25,000
2825/05 11:45BALE83murni kecil50,000
2925/05 11:45ZESCHYAmurni kecil5,000
3025/05 11:45MULTI88922balak20,000
3125/05 11:45AMAT562murni besar5,000
3225/05 11:44JON_7murni kecil50,000
3325/05 11:44AZAZIOmurni besar50,000
3425/05 11:44SEPEDANDONmurni kecil50,000
3525/05 11:44SKYN3T83murni besar50,000
3625/05 11:44TOMMY718murni besar5,000
3725/05 11:44INITU23murni kecil50,000
3825/05 11:44ACEOFBETmurni besar50,000
3925/05 11:43BOLONS11murni kecil50,000
4025/05 11:43BAWORE0balak200,000
4125/05 11:43MUMURmurni kecil25,000
4225/05 11:43WEDUS1murni kecil50,000
4325/05 11:43HASIL0murni kecil25,000
4425/05 11:43AYRUSKINKmurni kecil25,000
4525/05 11:43JODZKILLERmurni kecil50,000
4625/05 11:43BONUSDEPOOmurni kecil50,000
4725/05 11:43SUEX5murni kecil25,000
4825/05 11:43BONUSDEPOOmurni kecil50,000
4925/05 11:43DADANG1105murni kecil5,000
5025/05 11:43BGLEE82murni kecil50,000